< < Back
Terminal Aerodrome Forecast


Current Version              Previous Versions:   1  2  3  4  5  6  7  8  9  

Terminal Aerodrome Forecast

847
FTUS42 KGSP 202334
TAFAND
TAF
KAND 202334Z 2100/2124 05004KT P6SM OVC011
     FM210600 00000KT 3SM BR OVC010
     FM211500 07006KT P6SM OVC015=



Latest METAR

469
SAUS70 KWBC 210600 RRA
MTRAND
METAR KAND 210556Z AUTO 06005KT 10SM OVC010 07/04 A3023 RMK AO2 SLP239
T00670044 10072 20067 50001


USA.gov is the U.S. government's official web portal to all federal, state and local government web resources and services.